Avelig — FAD6740 — position and weather

sailwx.info

Track history (hours):
 
Tides and Currents Weather Stations Pressure Air Temp Water Temp Dewpoint Dewpoint Depression Visibility Wind Speed Wind Dir Waves Ship Positions

Avelig

Last reported at 2017-Oct-15 12:02 UTC. Time now 2017-Oct-22 06:44 UTC.
Position N 47°39' W 002°59'.

Length 12 m.

Type: Sailing vessel. MMSI: 227417910.

Date/timePositionNaut miles runAvg speedWind from/ knotsBaromVisibWave heightAir tempDewpointWater temp
2017-Oct-15 12:02N 47°39' W 002°59'0 0.0
2017-Oct-15 11:59N 47°39' W 002°59'1 1.6
2017-Oct-15 11:30N 47°39' W 002°58'2 3.3
2017-Oct-15 11:00N 47°37' W 002°57'1 2.9
2017-Oct-15 10:29N 47°36' W 002°57'8 0.3
2017-Oct-14 09:44N 47°28' W 002°56'6 0.3
2017-Oct-13 14:04N 47°34' W 002°55'1 4.6
2017-Oct-13 13:45N 47°35' W 002°56'1 4.4
2017-Oct-13 13:30N 47°36' W 002°57'2 4.2
2017-Oct-13 13:00N 47°38' W 002°58'  
2017-Oct-08 15:43N 47°39' W 002°59'0 0.0
2017-Oct-08 15:28N 47°39' W 002°59'2 3.2
2017-Oct-08 15:00N 47°38' W 002°58'2 4.0
2017-Oct-08 14:30N 47°36' W 002°57'2 3.7
2017-Oct-08 13:59N 47°34' W 002°56'1 0.0
2017-Oct-07 09:04N 47°34' W 002°55'1 7.0
2017-Oct-07 09:00N 47°34' W 002°55'3 5.2
2017-Oct-07 08:30N 47°36' W 002°57'2 4.7
2017-Oct-07 08:00N 47°39' W 002°58'  
Track history (hours):
 
Tides and Currents Weather Stations Pressure Air Temp Water Temp Dewpoint Dewpoint Depression Visibility Wind Speed Wind Dir Waves Ship Positions

Avelig

Last reported at 2017-Oct-15 12:02 UTC. Time now 2017-Oct-22 06:44 UTC.
Position N 47°39' W 002°59'.

Length 12 m.

Type: Sailing vessel. MMSI: 227417910.

Date/timePositionNaut miles runAvg speedWind from/ knotsBaromVisibWave heightAir tempDewpointWater temp
2017-Oct-15 12:02N 47°39' W 002°59'0 0.0
2017-Oct-15 11:59N 47°39' W 002°59'1 1.6
2017-Oct-15 11:30N 47°39' W 002°58'2 3.3
2017-Oct-15 11:00N 47°37' W 002°57'1 2.9
2017-Oct-15 10:29N 47°36' W 002°57'8 0.3
2017-Oct-14 09:44N 47°28' W 002°56'6 0.3
2017-Oct-13 14:04N 47°34' W 002°55'1 4.6
2017-Oct-13 13:45N 47°35' W 002°56'1 4.4
2017-Oct-13 13:30N 47°36' W 002°57'2 4.2
2017-Oct-13 13:00N 47°38' W 002°58'  
2017-Oct-08 15:43N 47°39' W 002°59'0 0.0
2017-Oct-08 15:28N 47°39' W 002°59'2 3.2
2017-Oct-08 15:00N 47°38' W 002°58'2 4.0
2017-Oct-08 14:30N 47°36' W 002°57'2 3.7
2017-Oct-08 13:59N 47°34' W 002°56'1 0.0
2017-Oct-07 09:04N 47°34' W 002°55'1 7.0
2017-Oct-07 09:00N 47°34' W 002°55'3 5.2
2017-Oct-07 08:30N 47°36' W 002°57'2 4.7
2017-Oct-07 08:00N 47°39' W 002°58'  

Dump ship's entire track history